Time;durP1;ratioP1;P1;durP2;ratioP2;P2;SDS_P1;SDS_P2;PMS_P1;PMS_P2;Temp;Humidity;BMP_temperature;BMP_pressure;BME280_temperature;BME280_humidity;BME280_pressure;Samples;Min_cycle;Max_cycle;Signal;HPM_P1;HPM_P2
2021/09/17 00:01:38;;;;;;;49.92;36.78;;;16.00;91.90;;;;;;4991909;28;20029;-86
2021/09/17 00:04:04;;;;;;;45.83;34.70;;;16.00;91.90;;;;;;4991413;28;20043;-85
2021/09/17 00:06:30;;;;;;;50.25;34.63;;;16.00;91.90;;;;;;4991582;28;20084;-85
2021/09/17 00:08:56;;;;;;;49.38;35.58;;;16.00;91.90;;;;;;4974661;28;20380;-86
2021/09/17 00:11:22;;;;;;;46.97;34.03;;;16.00;92.00;;;;;;4971999;28;20026;-86
2021/09/17 00:13:48;;;;;;;44.58;35.45;;;16.00;92.00;;;;;;4971104;28;20047;-86
2021/09/17 00:16:14;;;;;;;48.05;35.15;;;16.10;92.00;;;;;;4988232;28;20042;-86
2021/09/17 00:18:40;;;;;;;49.05;36.00;;;16.10;92.00;;;;;;4988637;28;20093;-86
2021/09/17 00:21:05;;;;;;;51.58;37.67;;;16.00;92.00;;;;;;4988802;28;20525;-86
2021/09/17 00:23:32;;;;;;;53.30;36.25;;;16.00;92.10;;;;;;4987510;28;20027;-86
2021/09/17 00:25:59;;;;;;;48.20;36.33;;;16.10;92.20;;;;;;4942755;28;1327972;-86
2021/09/17 00:28:25;;;;;;;48.17;35.65;;;16.00;92.20;;;;;;4989173;28;20035;-86
2021/09/17 00:30:51;;;;;;;49.17;34.92;;;16.10;92.30;;;;;;4972979;28;20030;-85
2021/09/17 00:33:17;;;;;;;45.28;34.25;;;16.10;92.30;;;;;;4974902;28;20031;-86
2021/09/17 00:35:43;;;;;;;51.25;35.78;;;16.10;92.30;;;;;;4974053;28;20038;-86
2021/09/17 00:38:08;;;;;;;48.42;35.85;;;16.10;92.30;;;;;;4973399;28;20117;-86
2021/09/17 00:40:34;;;;;;;48.95;35.83;;;16.10;92.40;;;;;;4988865;28;20082;-86
2021/09/17 00:43:01;;;;;;;50.40;33.40;;;16.10;92.40;;;;;;4989554;28;20074;-86
2021/09/17 00:45:27;;;;;;;48.78;33.72;;;16.10;92.40;;;;;;4989137;28;20415;-86
2021/09/17 00:47:53;;;;;;;48.40;35.72;;;16.20;92.40;;;;;;4973257;28;20026;-86
2021/09/17 00:50:21;;;;;;;48.13;34.92;;;16.20;92.40;;;;;;4989036;28;20057;-86
2021/09/17 00:52:48;;;;;;;50.70;36.28;;;16.20;92.50;;;;;;4974695;28;20027;-86
2021/09/17 00:55:15;;;;;;;49.33;35.60;;;16.20;92.60;;;;;;4988981;28;20082;-86
2021/09/17 00:57:41;;;;;;;47.72;35.42;;;16.20;92.60;;;;;;4974447;28;20026;-86
2021/09/17 01:00:11;;;;;;;50.33;35.13;;;16.20;92.50;;;;;;4989519;28;20031;-85
2021/09/17 01:02:37;;;;;;;48.60;34.90;;;16.20;92.50;;;;;;4974234;28;20034;-85
2021/09/17 01:05:04;;;;;;;48.28;34.20;;;16.30;92.50;;;;;;4974693;28;20121;-86
2021/09/17 01:07:30;;;;;;;49.28;35.17;;;16.30;92.60;;;;;;4989115;28;20030;-86
2021/09/17 01:09:57;;;;;;;50.22;36.40;;;16.30;92.60;;;;;;4988888;28;20130;-86
2021/09/17 01:12:23;;;;;;;49.22;34.58;;;16.30;92.60;;;;;;4974047;28;20027;-85
2021/09/17 01:14:51;;;;;;;48.33;34.92;;;16.30;92.60;;;;;;5005260;28;20042;-85
2021/09/17 01:17:18;;;;;;;49.40;34.45;;;16.30;92.60;;;;;;4975278;28;20042;-86
2021/09/17 01:19:47;;;;;;;47.28;35.33;;;16.30;92.60;;;;;;5008412;28;20030;-86
2021/09/17 01:22:14;;;;;;;48.83;34.08;;;16.30;92.60;;;;;;5007944;28;20431;-85
2021/09/17 01:24:40;;;;;;;46.92;34.75;;;16.30;92.70;;;;;;4975787;28;20062;-85
2021/09/17 01:27:07;;;;;;;51.70;36.42;;;16.30;92.70;;;;;;4992212;28;20066;-85
2021/09/17 01:29:34;;;;;;;55.28;37.08;;;16.30;92.60;;;;;;4992444;28;20130;-86
2021/09/17 01:32:00;;;;;;;52.88;38.15;;;16.30;92.60;;;;;;4977618;28;20039;-85
2021/09/17 01:34:26;;;;;;;50.55;35.53;;;16.30;92.60;;;;;;4977657;28;20102;-86
2021/09/17 01:36:52;;;;;;;51.80;36.70;;;16.30;92.60;;;;;;4976095;28;20138;-85
2021/09/17 01:39:19;;;;;;;56.45;37.20;;;16.30;92.70;;;;;;4976283;28;20027;-86
2021/09/17 01:41:47;;;;;;;50.13;36.40;;;16.30;92.70;;;;;;4977477;28;20493;-85
2021/09/17 01:44:14;;;;;;;53.80;38.38;;;16.30;92.70;;;;;;4992247;28;20042;-86
2021/09/17 01:46:39;;;;;;;50.65;36.35;;;16.30;92.60;;;;;;4976285;28;20085;-86
2021/09/17 01:49:05;;;;;;;47.80;36.10;;;16.30;92.60;;;;;;4992862;28;20111;-86
2021/09/17 01:51:31;;;;;;;58.17;40.15;;;16.30;92.60;;;;;;5008357;28;20023;-86
2021/09/17 01:53:57;;;;;;;56.80;39.15;;;16.30;92.70;;;;;;4977329;28;20027;-86
2021/09/17 01:56:25;;;;;;;53.40;37.50;;;16.30;92.70;;;;;;4991895;28;20043;-85
2021/09/17 01:58:51;;;;;;;58.35;37.85;;;16.20;92.70;;;;;;4992028;28;20174;-84
2021/09/17 02:01:18;;;;;;;52.53;37.60;;;16.20;92.60;;;;;;4991669;28;20051;-86
2021/09/17 02:03:43;;;;;;;56.05;37.60;;;16.20;92.60;;;;;;4991704;28;20058;-85
2021/09/17 02:06:09;;;;;;;53.47;38.05;;;16.20;92.50;;;;;;5007853;28;20128;-86
2021/09/17 02:08:35;;;;;;;50.17;37.00;;;16.20;92.60;;;;;;4991421;28;20034;-85
2021/09/17 02:11:01;;;;;;;52.05;37.03;;;16.20;92.60;;;;;;4976685;28;20034;-86
2021/09/17 02:13:27;;;;;;;53.90;38.83;;;16.20;92.60;;;;;;4991242;28;20078;-86
2021/09/17 02:15:53;;;;;;;51.70;35.97;;;16.20;92.60;;;;;;4991380;28;20529;-86
2021/09/17 02:18:20;;;;;;;53.67;36.90;;;16.20;92.90;;;;;;4991690;28;20062;-86
2021/09/17 02:20:47;;;;;;;53.28;37.22;;;16.10;92.60;;;;;;4975414;28;20106;-85
2021/09/17 02:23:14;;;;;;;54.22;38.00;;;16.10;92.60;;;;;;4975388;28;20483;-86
2021/09/17 02:25:40;;;;;;;53.10;37.90;;;16.10;92.60;;;;;;5007487;28;20059;-85
2021/09/17 02:28:06;;;;;;;54.92;36.78;;;16.20;92.70;;;;;;4990253;28;20049;-86
2021/09/17 02:30:32;;;;;;;53.70;37.28;;;16.20;92.70;;;;;;4991143;28;20022;-85
2021/09/17 02:32:58;;;;;;;55.80;37.88;;;16.20;92.70;;;;;;4976720;28;20468;-86
2021/09/17 02:35:24;;;;;;;54.40;38.25;;;16.20;92.70;;;;;;4975782;28;20205;-86
2021/09/17 02:37:50;;;;;;;57.70;39.45;;;16.20;92.70;;;;;;5007601;28;20066;-86
2021/09/17 02:40:17;;;;;;;58.92;38.85;;;16.10;92.70;;;;;;5007201;28;20035;-84
2021/09/17 02:42:43;;;;;;;58.20;39.00;;;16.20;92.70;;;;;;4974942;28;20408;-86
2021/09/17 02:45:11;;;;;;;51.63;35.50;;;16.20;92.70;;;;;;4990817;28;20098;-86
2021/09/17 02:47:37;;;;;;;60.33;40.90;;;16.10;92.70;;;;;;5006967;28;20145;-86
2021/09/17 02:50:04;;;;;;;57.65;39.58;;;16.20;92.80;;;;;;4974638;28;20033;-86
2021/09/17 02:52:30;;;;;;;55.60;38.88;;;16.20;92.80;;;;;;4975865;28;20386;-86
2021/09/17 02:54:56;;;;;;;58.50;38.13;;;16.20;92.80;;;;;;4990858;28;20039;-86
2021/09/17 02:57:22;;;;;;;59.67;39.10;;;16.20;92.70;;;;;;4975633;28;20035;-85
2021/09/17 02:59:48;;;;;;;63.47;39.65;;;16.20;92.80;;;;;;4990741;28;20027;-86
2021/09/17 03:02:15;;;;;;;59.13;39.53;;;16.20;92.70;;;;;;5006738;28;20054;-85
2021/09/17 03:04:41;;;;;;;54.45;37.83;;;16.20;92.80;;;;;;4976155;28;20027;-85
2021/09/17 03:07:07;;;;;;;57.75;39.97;;;16.20;92.80;;;;;;4990557;28;20058;-85
2021/09/17 03:09:32;;;;;;;59.65;40.35;;;16.20;92.80;;;;;;5007071;28;20042;-84
2021/09/17 03:12:00;;;;;;;61.63;39.95;;;16.10;92.80;;;;;;5007089;28;20081;-85
2021/09/17 03:14:25;;;;;;;62.20;41.65;;;16.20;92.80;;;;;;4974073;28;20069;-85
2021/09/17 03:16:51;;;;;;;58.28;39.53;;;16.10;92.80;;;;;;4990145;28;20070;-85
2021/09/17 03:19:18;;;;;;;61.25;41.33;;;16.10;92.80;;;;;;4990067;28;20026;-84
2021/09/17 03:21:44;;;;;;;61.55;41.00;;;16.10;92.80;;;;;;4974601;28;20062;-85
2021/09/17 03:24:10;;;;;;;63.95;43.90;;;16.10;92.90;;;;;;4975442;28;20045;-85
2021/09/17 03:26:36;;;;;;;60.63;41.40;;;16.10;92.90;;;;;;4989890;28;20459;-85
2021/09/17 03:29:03;;;;;;;66.35;42.97;;;16.20;92.90;;;;;;5007263;28;20158;-85
2021/09/17 03:31:29;;;;;;;65.53;42.13;;;16.20;92.90;;;;;;5005725;28;20030;-85
2021/09/17 03:33:58;;;;;;;64.15;41.63;;;16.10;92.90;;;;;;4974117;28;20027;-85
2021/09/17 03:36:27;;;;;;;64.70;41.65;;;16.10;92.90;;;;;;4975206;28;20193;-85
2021/09/17 03:38:57;;;;;;;66.32;43.17;;;16.20;93.00;;;;;;4974078;28;20117;-85
2021/09/17 03:41:23;;;;;;;72.75;45.15;;;16.20;93.10;;;;;;4975371;28;20027;-86
2021/09/17 03:43:49;;;;;;;66.90;43.78;;;16.20;93.10;;;;;;4973565;28;20033;-85
2021/09/17 03:46:15;;;;;;;67.95;43.88;;;16.20;93.10;;;;;;4989942;28;20031;-85
2021/09/17 03:48:41;;;;;;;66.30;43.80;;;16.20;93.10;;;;;;4989906;28;20041;-86
2021/09/17 03:51:07;;;;;;;61.55;41.72;;;16.20;93.10;;;;;;4990131;28;20030;-86
2021/09/17 03:53:33;;;;;;;68.25;44.00;;;16.30;93.20;;;;;;4989744;28;20030;-85
2021/09/17 03:55:59;;;;;;;71.22;45.08;;;16.20;93.10;;;;;;4989538;28;20039;-85
2021/09/17 03:58:25;;;;;;;70.45;44.50;;;16.20;93.10;;;;;;5006005;28;20125;-85
2021/09/17 04:00:50;;;;;;;70.80;45.00;;;16.30;93.20;;;;;;4989887;28;20037;-85
2021/09/17 04:03:16;;;;;;;69.68;45.88;;;16.20;93.10;;;;;;5006133;28;20180;-85
2021/09/17 04:05:42;;;;;;;72.40;46.03;;;16.30;93.20;;;;;;5006313;28;20463;-85
2021/09/17 04:08:08;;;;;;;69.97;45.13;;;16.30;93.10;;;;;;5005872;28;20061;-85
2021/09/17 04:10:34;;;;;;;68.35;44.60;;;16.30;93.10;;;;;;5006091;28;20039;-85
2021/09/17 04:13:00;;;;;;;74.60;45.10;;;16.30;93.20;;;;;;4989545;28;20031;-85
2021/09/17 04:15:26;;;;;;;69.80;45.53;;;16.30;93.20;;;;;;4974080;28;20034;-85
2021/09/17 04:17:52;;;;;;;66.43;43.95;;;16.30;93.20;;;;;;4974546;28;20035;-85
2021/09/17 04:20:18;;;;;;;65.88;45.88;;;16.30;93.20;;;;;;4982808;28;20502;-84
2021/09/17 04:22:44;;;;;;;69.35;44.40;;;16.30;93.20;;;;;;5003402;28;20110;-85
2021/09/17 04:25:11;;;;;;;66.07;43.47;;;16.30;93.20;;;;;;4990489;28;20038;-85
2021/09/17 04:27:37;;;;;;;65.13;43.30;;;16.30;93.20;;;;;;4993367;28;20524;-85
2021/09/17 04:30:06;;;;;;;67.00;44.03;;;16.40;93.20;;;;;;4993333;28;20031;-85
2021/09/17 04:32:32;;;;;;;66.97;43.78;;;16.30;93.20;;;;;;5008392;28;20030;-85
2021/09/17 04:34:58;;;;;;;67.93;44.80;;;16.40;93.30;;;;;;5008312;28;20037;-85
2021/09/17 04:37:24;;;;;;;62.25;42.58;;;16.40;93.30;;;;;;4988230;28;20402;-85
2021/09/17 04:39:49;;;;;;;64.22;44.53;;;16.40;93.30;;;;;;4989534;28;20094;-85
2021/09/17 04:42:15;;;;;;;61.85;43.25;;;16.40;93.30;;;;;;4989197;28;20487;-86
2021/09/17 04:44:41;;;;;;;60.10;42.00;;;16.40;93.30;;;;;;4956881;28;20054;-85
2021/09/17 04:47:07;;;;;;;62.50;42.83;;;16.40;93.30;;;;;;4974124;28;20033;-85
2021/09/17 04:49:33;;;;;;;61.78;42.17;;;16.40;93.30;;;;;;4989694;28;20031;-85
2021/09/17 04:51:59;;;;;;;62.78;43.00;;;16.40;93.30;;;;;;4976581;28;20035;-85
2021/09/17 04:54:25;;;;;;;69.70;44.20;;;16.50;93.30;;;;;;4976911;28;20041;-85
2021/09/17 04:56:51;;;;;;;62.10;41.50;;;16.40;93.30;;;;;;4976673;28;20038;-84
2021/09/17 04:59:16;;;;;;;62.38;42.03;;;16.50;93.30;;;;;;4977162;28;20036;-86
2021/09/17 05:01:42;;;;;;;64.07;43.55;;;16.50;93.30;;;;;;4976735;28;20026;-86
2021/09/17 05:04:08;;;;;;;64.22;44.33;;;16.40;93.30;;;;;;4976795;28;20387;-85
2021/09/17 05:06:34;;;;;;;64.97;45.00;;;16.50;93.30;;;;;;4960728;28;20471;-85
2021/09/17 05:09:00;;;;;;;63.00;44.25;;;16.50;93.30;;;;;;4976365;28;20117;-85
2021/09/17 05:11:27;;;;;;;67.25;45.38;;;16.50;93.40;;;;;;4992433;28;20023;-85
2021/09/17 05:13:53;;;;;;;64.88;45.60;;;16.50;93.40;;;;;;4992765;28;20063;-85
2021/09/17 05:16:19;;;;;;;70.32;46.28;;;16.50;93.40;;;;;;4992668;28;20035;-86
2021/09/17 05:18:45;;;;;;;65.85;45.78;;;16.50;93.50;;;;;;4976852;28;20073;-85
2021/09/17 05:21:12;;;;;;;68.32;44.38;;;16.50;93.50;;;;;;4992794;28;20062;-85
2021/09/17 05:23:38;;;;;;;63.85;44.75;;;16.50;93.50;;;;;;4992394;28;20019;-86
2021/09/17 05:26:04;;;;;;;61.67;43.90;;;16.50;93.50;;;;;;4977257;28;20455;-86
2021/09/17 05:28:31;;;;;;;65.75;44.88;;;16.50;93.60;;;;;;4976457;28;20062;-85
2021/09/17 05:30:56;;;;;;;68.32;45.55;;;16.50;93.60;;;;;;4991916;28;20125;-85
2021/09/17 05:33:22;;;;;;;64.63;44.08;;;16.50;93.60;;;;;;4975969;28;20461;-85
2021/09/17 05:35:48;;;;;;;63.00;44.08;;;16.50;93.60;;;;;;4991860;28;20126;-85
2021/09/17 05:38:14;;;;;;;63.83;44.42;;;16.50;93.60;;;;;;4976966;28;20471;-86
2021/09/17 05:40:40;;;;;;;61.17;43.95;;;16.50;93.50;;;;;;4975889;28;20054;-85
2021/09/17 05:43:06;;;;;;;63.53;43.15;;;16.50;93.50;;;;;;4975961;28;20125;-85
2021/09/17 05:45:32;;;;;;;64.35;44.35;;;16.50;93.50;;;;;;4991984;28;20030;-85
2021/09/17 05:47:58;;;;;;;63.88;42.60;;;16.50;93.50;;;;;;4975794;28;20031;-86
2021/09/17 05:50:24;;;;;;;63.90;43.42;;;16.50;93.60;;;;;;4991854;28;20027;-85
2021/09/17 05:52:49;;;;;;;62.80;43.78;;;16.50;93.60;;;;;;4975517;28;20137;-84
2021/09/17 05:55:15;;;;;;;59.92;43.40;;;16.60;93.60;;;;;;4991677;28;20035;-85
2021/09/17 05:57:41;;;;;;;61.55;43.40;;;16.50;93.60;;;;;;4975362;28;20126;-85
2021/09/17 06:00:10;;;;;;;58.70;41.78;;;16.50;93.50;;;;;;4991663;28;20037;-85
2021/09/17 06:02:36;;;;;;;58.97;42.10;;;16.50;93.50;;;;;;4990548;28;20067;-85
2021/09/17 06:05:02;;;;;;;58.00;40.85;;;16.50;93.50;;;;;;4976051;28;20031;-86
2021/09/17 06:07:28;;;;;;;59.97;42.70;;;16.60;93.50;;;;;;4991724;28;20125;-85
2021/09/17 06:09:57;;;;;;;59.83;39.83;;;16.60;93.50;;;;;;4975049;28;20483;-85
2021/09/17 06:12:23;;;;;;;56.30;40.30;;;16.60;93.50;;;;;;4976596;28;20027;-85
2021/09/17 06:14:49;;;;;;;59.50;41.70;;;16.60;93.50;;;;;;4975517;28;20081;-85
2021/09/17 06:17:15;;;;;;;55.33;39.88;;;16.60;93.50;;;;;;4975492;28;20039;-85
2021/09/17 06:19:41;;;;;;;59.38;40.83;;;16.60;93.50;;;;;;4975200;28;20038;-85
2021/09/17 06:22:07;;;;;;;56.53;40.92;;;16.60;93.50;;;;;;4975824;28;20089;-84
2021/09/17 06:24:32;;;;;;;57.67;39.28;;;16.60;93.50;;;;;;4991499;28;20038;-85
2021/09/17 06:26:58;;;;;;;55.28;40.42;;;16.70;93.50;;;;;;4975501;28;20043;-85
2021/09/17 06:29:24;;;;;;;54.75;39.72;;;16.70;93.50;;;;;;4976367;28;20034;-85
2021/09/17 06:31:50;;;;;;;53.83;38.33;;;16.70;93.50;;;;;;4975222;28;20105;-84
2021/09/17 06:34:15;;;;;;;54.85;35.35;;;16.70;93.50;;;;;;4974921;28;20093;-85
2021/09/17 06:36:41;;;;;;;48.03;35.30;;;16.80;93.50;;;;;;4975133;28;20050;-85
2021/09/17 06:39:08;;;;;;;47.03;35.30;;;16.80;93.50;;;;;;4974720;28;20034;-85
2021/09/17 06:41:34;;;;;;;47.47;34.28;;;16.90;93.40;;;;;;4975169;28;20479;-85
2021/09/17 06:44:00;;;;;;;47.33;34.33;;;16.90;93.30;;;;;;4976434;28;20065;-85
2021/09/17 06:46:25;;;;;;;45.88;34.30;;;16.90;93.20;;;;;;4991382;28;20027;-85
2021/09/17 06:48:52;;;;;;;43.65;32.70;;;17.00;93.20;;;;;;4976331;28;20034;-85
2021/09/17 06:51:18;;;;;;;45.38;33.67;;;17.00;93.00;;;;;;4991117;28;20019;-85
2021/09/17 06:53:47;;;;;;;42.92;33.35;;;17.10;93.00;;;;;;4974566;28;20038;-85
2021/09/17 06:56:12;;;;;;;51.20;34.25;;;17.10;92.80;;;;;;4958700;28;20046;-85
2021/09/17 06:58:39;;;;;;;42.72;33.40;;;17.10;92.70;;;;;;4974586;28;20395;-84
2021/09/17 07:01:05;;;;;;;44.65;31.00;;;17.20;92.80;;;;;;4974482;28;20027;-85
2021/09/17 07:03:31;;;;;;;45.05;33.00;;;17.20;92.60;;;;;;4974505;28;20041;-85
2021/09/17 07:05:57;;;;;;;41.10;32.38;;;17.30;92.50;;;;;;4990376;28;20434;-86
2021/09/17 07:08:23;;;;;;;42.38;29.25;;;17.30;92.40;;;;;;4990532;28;20073;-85
2021/09/17 07:10:49;;;;;;;41.53;30.35;;;17.40;92.30;;;;;;4974176;28;20475;-85
2021/09/17 07:13:16;;;;;;;40.88;29.48;;;17.40;92.20;;;;;;4975280;28;20105;-85
2021/09/17 07:15:42;;;;;;;44.40;30.88;;;17.40;92.10;;;;;;4989859;28;20038;-85
2021/09/17 07:18:09;;;;;;;37.88;28.60;;;17.50;92.00;;;;;;4990130;28;20023;-84
2021/09/17 07:20:36;;;;;;;38.30;28.05;;;17.50;91.90;;;;;;4989720;28;20129;-84
2021/09/17 07:23:03;;;;;;;35.63;29.05;;;17.50;91.90;;;;;;4975380;28;20031;-85
2021/09/17 07:25:30;;;;;;;38.05;29.08;;;17.60;91.90;;;;;;4974260;28;20398;-85
2021/09/17 07:27:59;;;;;;;34.22;27.38;;;17.50;91.80;;;;;;4989571;28;20058;-84
2021/09/17 07:30:25;;;;;;;37.22;26.88;;;17.60;91.80;;;;;;4973890;28;20028;-85
2021/09/17 07:32:51;;;;;;;32.30;26.40;;;17.60;91.60;;;;;;4974460;28;20034;-85
2021/09/17 07:35:17;;;;;;;33.00;25.92;;;17.60;91.40;;;;;;4973562;28;20078;-86
2021/09/17 07:37:44;;;;;;;34.20;25.77;;;17.60;91.30;;;;;;4973623;28;20030;-84
2021/09/17 07:40:13;;;;;;;32.13;24.73;;;17.60;91.20;;;;;;4973731;28;20463;-85
2021/09/17 07:42:40;;;;;;;33.95;26.17;;;17.70;91.10;;;;;;4973569;28;20113;-85
2021/09/17 07:45:07;;;;;;;33.00;25.20;;;17.70;90.90;;;;;;4973629;28;20193;-85
2021/09/17 07:47:33;;;;;;;32.10;24.48;;;17.70;90.80;;;;;;4973716;28;20046;-85
2021/09/17 07:49:59;;;;;;;30.75;24.15;;;17.70;90.70;;;;;;4974697;28;20027;-84
2021/09/17 07:52:25;;;;;;;30.38;22.90;;;17.80;90.70;;;;;;4974292;28;20449;-85
2021/09/17 07:54:51;;;;;;;30.35;23.90;;;17.90;90.60;;;;;;4989970;28;20123;-85
2021/09/17 07:57:17;;;;;;;29.60;22.73;;;17.90;90.50;;;;;;4973474;28;20043;-85
2021/09/17 07:59:42;;;;;;;28.13;22.08;;;18.10;90.50;;;;;;4973647;28;20019;-85
2021/09/17 08:02:09;;;;;;;31.63;21.90;;;18.10;90.40;;;;;;4973296;28;20027;-84
2021/09/17 08:04:38;;;;;;;30.92;23.00;;;18.20;90.30;;;;;;4973084;28;20035;-85
2021/09/17 08:07:05;;;;;;;27.13;22.00;;;18.30;90.20;;;;;;4973955;28;20026;-85
2021/09/17 08:09:32;;;;;;;34.05;24.33;;;18.30;90.00;;;;;;4988606;28;20054;-84
2021/09/17 08:11:58;;;;;;;30.25;22.25;;;18.50;89.80;;;;;;4975133;28;20038;-83
2021/09/17 08:14:24;;;;;;;28.35;22.08;;;18.50;89.50;;;;;;4975278;28;20089;-85
2021/09/17 08:16:49;;;;;;;25.67;20.05;;;18.60;89.40;;;;;;4991948;28;20042;-85
2021/09/17 08:19:16;;;;;;;25.42;21.33;;;18.70;89.10;;;;;;4976719;28;20023;-85
2021/09/17 08:21:43;;;;;;;25.40;20.35;;;18.80;89.00;;;;;;4992569;28;20035;-85
2021/09/17 08:24:16;;;;;;;27.08;21.48;;;18.90;88.70;;;;;;4991882;28;20169;-85
2021/09/17 08:26:49;;;;;;;27.13;21.33;;;19.00;88.30;;;;;;4994469;28;20050;-85
2021/09/17 08:29:15;;;;;;;26.08;20.92;;;19.10;88.00;;;;;;4997679;28;20022;-85
2021/09/17 08:31:42;;;;;;;24.23;19.35;;;19.20;87.70;;;;;;4997416;28;20413;-85
2021/09/17 08:34:09;;;;;;;23.95;19.27;;;19.20;87.10;;;;;;4996591;28;20035;-85
2021/09/17 08:36:35;;;;;;;25.50;20.15;;;19.30;86.70;;;;;;4997742;28;20038;-85
2021/09/17 08:39:01;;;;;;;23.73;19.17;;;19.30;86.40;;;;;;4996426;28;20065;-85
2021/09/17 08:41:27;;;;;;;25.42;19.67;;;19.40;86.30;;;;;;4979996;28;20383;-86
2021/09/17 08:43:53;;;;;;;25.63;20.80;;;19.50;86.00;;;;;;4995710;28;20126;-85
2021/09/17 08:46:20;;;;;;;29.95;21.25;;;19.50;85.60;;;;;;4979914;28;20062;-85
2021/09/17 08:48:51;;;;;;;26.05;19.73;;;19.70;85.40;;;;;;4996640;28;20032;-85
2021/09/17 08:51:18;;;;;;;22.25;17.15;;;19.80;84.90;;;;;;4980282;28;20034;-85
2021/09/17 08:53:44;;;;;;;23.25;18.48;;;19.90;84.60;;;;;;4996653;28;20022;-85
2021/09/17 08:56:17;;;;;;;23.38;18.13;;;20.10;83.90;;;;;;4996347;28;20121;-84
2021/09/17 08:58:44;;;;;;;23.58;18.27;;;20.20;82.90;;;;;;4995926;28;20624;-85
2021/09/17 09:01:36;;;;;;;23.50;17.85;;;20.30;82.50;;;;;;4995562;28;20065;-85
2021/09/17 09:04:04;;;;;;;23.02;17.10;;;20.40;81.70;;;;;;4996958;28;20370;-85
2021/09/17 09:06:47;;;;;;;24.73;18.90;;;20.50;81.60;;;;;;4997517;28;20022;-85
2021/09/17 09:09:18;;;;;;;22.42;17.08;;;20.60;81.10;;;;;;4979835;28;20038;-85
2021/09/17 09:11:49;;;;;;;22.40;18.48;;;20.70;80.90;;;;;;4996057;28;20030;-85
2021/09/17 09:14:16;;;;;;;22.17;17.10;;;20.80;80.40;;;;;;4995798;28;20022;-84
2021/09/17 09:16:47;;;;;;;21.08;17.00;;;20.90;79.70;;;;;;4995162;28;20124;-85
2021/09/17 09:19:19;;;;;;;20.85;17.48;;;21.00;79.00;;;;;;4995762;28;20596;-85
2021/09/17 09:21:45;;;;;;;20.05;15.32;;;21.00;78.70;;;;;;4996977;28;20072;-85
2021/09/17 09:24:19;;;;;;;18.63;15.60;;;21.10;78.20;;;;;;4995995;28;20030;-85
2021/09/17 09:26:46;;;;;;;17.90;14.85;;;21.10;78.60;;;;;;4996245;28;20125;-85
2021/09/17 09:29:28;;;;;;;19.95;14.70;;;21.20;77.80;;;;;;4979617;28;20478;-85
2021/09/17 09:31:54;;;;;;;16.17;12.50;;;21.30;77.30;;;;;;4996475;28;20041;-86
2021/09/17 09:34:23;;;;;;;17.67;13.63;;;21.30;76.90;;;;;;4997277;28;20026;-86
2021/09/17 09:37:06;;;;;;;17.48;14.05;;;21.30;76.40;;;;;;4995004;28;20038;-85
2021/09/17 09:39:59;;;;;;;14.73;12.15;;;21.30;75.60;;;;;;5011600;28;20033;-84
2021/09/17 09:42:41;;;;;;;19.15;15.57;;;21.20;75.10;;;;;;5026387;28;20117;-85
2021/09/17 09:45:08;;;;;;;20.98;16.13;;;21.10;75.00;;;;;;4994928;28;20054;-85
2021/09/17 09:47:36;;;;;;;20.42;15.65;;;21.10;75.10;;;;;;4995630;28;20545;-85
2021/09/17 09:50:13;;;;;;;18.70;15.55;;;21.10;75.30;;;;;;4996662;28;20018;-85
2021/09/17 09:52:39;;;;;;;16.75;13.63;;;21.10;75.20;;;;;;4994925;28;20133;-85
2021/09/17 09:55:06;;;;;;;19.92;15.98;;;21.10;75.30;;;;;;4995218;28;20165;-84
2021/09/17 09:57:32;;;;;;;23.40;17.33;;;21.10;75.30;;;;;;4996049;28;20030;-84
2021/09/17 10:00:07;;;;;;;20.63;16.52;;;21.10;75.00;;;;;;4979231;28;20041;-86
2021/09/17 10:02:34;;;;;;;20.65;16.85;;;21.10;75.20;;;;;;4995187;28;20106;-85
2021/09/17 10:05:00;;;;;;;18.30;13.77;;;21.20;75.30;;;;;;4995422;28;20489;-85
2021/09/17 10:07:29;;;;;;;20.85;17.30;;;21.30;75.40;;;;;;4979289;28;20062;-86
2021/09/17 10:09:58;;;;;;;20.70;17.45;;;21.30;75.10;;;;;;4995904;28;20104;-86
2021/09/17 10:12:25;;;;;;;24.83;19.23;;;21.30;75.30;;;;;;4995501;28;20126;-85
2021/09/17 10:14:52;;;;;;;24.90;19.23;;;21.40;75.40;;;;;;4996390;28;20026;-85
2021/09/17 10:17:21;;;;;;;24.23;19.63;;;21.40;75.40;;;;;;4994963;28;20093;-86
2021/09/17 10:19:52;;;;;;;25.48;19.25;;;21.40;75.20;;;;;;4994571;28;20447;-84
2021/09/17 10:22:43;;;;;;;23.98;18.65;;;21.40;75.10;;;;;;4995372;28;20050;-86
2021/09/17 10:25:20;;;;;;;25.67;20.63;;;21.40;75.40;;;;;;4996061;28;20103;-86
2021/09/17 10:28:07;;;;;;;25.40;21.02;;;21.40;75.50;;;;;;4994172;28;20046;-85
2021/09/17 10:30:36;;;;;;;21.75;17.55;;;21.40;75.30;;;;;;4995942;28;20038;-85
2021/09/17 10:33:02;;;;;;;22.70;18.88;;;21.50;75.40;;;;;;4994625;28;20025;-86
2021/09/17 10:35:41;;;;;;;23.13;18.95;;;21.50;74.90;;;;;;4995760;28;20070;-86
2021/09/17 10:38:16;;;;;;;26.08;20.40;;;21.60;74.90;;;;;;4994558;28;20050;-86
2021/09/17 10:40:53;;;;;;;27.77;21.38;;;21.70;75.00;;;;;;4994127;28;20018;-86
2021/09/17 10:43:38;;;;;;;24.52;19.05;;;21.80;74.90;;;;;;4995796;28;20037;-86
2021/09/17 10:46:32;;;;;;;25.50;21.52;;;21.80;74.60;;;;;;4994526;28;20019;-86
2021/09/17 10:48:59;;;;;;;26.00;20.33;;;21.80;74.10;;;;;;4990867;28;20031;-85
2021/09/17 10:51:42;;;;;;;26.73;20.77;;;21.80;74.10;;;;;;4994371;28;20394;-86
2021/09/17 10:54:19;;;;;;;30.33;21.53;;;21.90;73.90;;;;;;4994326;28;20042;-85
2021/09/17 10:56:48;;;;;;;28.38;21.63;;;21.90;73.50;;;;;;4978603;28;20306;-86
2021/09/17 10:59:21;;;;;;;27.35;19.80;;;21.80;73.40;;;;;;4994201;28;20026;-85
2021/09/17 11:01:51;;;;;;;;;;;21.90;73.20;;;;;;4995518;28;20027;-86
2021/09/17 11:04:32;;;;;;;25.85;17.35;;;21.90;73.50;;;;;;4994328;28;20291;-86
2021/09/17 11:07:17;;;;;;;24.15;17.08;;;21.90;73.40;;;;;;4994075;28;20020;-86
2021/09/17 11:09:51;;;;;;;19.90;15.20;;;22.00;73.20;;;;;;4994043;28;20034;-85
2021/09/17 11:12:21;;;;;;;26.08;19.20;;;22.10;73.20;;;;;;4993747;28;20421;-86
2021/09/17 11:15:03;;;;;;;26.27;20.73;;;22.10;73.00;;;;;;4994081;28;20522;-84
2021/09/17 11:17:45;;;;;;;25.30;19.42;;;22.20;72.90;;;;;;4995263;28;20038;-85
2021/09/17 11:20:22;;;;;;;25.98;18.63;;;22.30;72.80;;;;;;4993460;28;20030;-86
2021/09/17 11:23:07;;;;;;;24.02;18.80;;;22.40;72.70;;;;;;4994784;28;20019;-85
2021/09/17 11:25:38;;;;;;;24.52;18.85;;;22.50;72.40;;;;;;4993598;28;20046;-84
2021/09/17 11:28:32;;;;;;;23.05;18.45;;;22.50;71.90;;;;;;4993593;28;20086;-85
2021/09/17 11:31:14;;;;;;;;;;;22.70;71.90;;;;;;4992038;28;20034;-85
2021/09/17 11:33:41;;;;;;;18.40;14.55;;;22.90;72.20;;;;;;5023317;28;19996;-84
2021/09/17 11:36:07;;;;;;;22.02;17.23;;;23.40;72.90;;;;;;4977576;28;20452;-86
2021/09/17 11:38:33;;;;;;;21.33;17.13;;;23.80;71.70;;;;;;4995059;28;20026;-85
2021/09/17 11:40:59;;;;;;;21.48;15.95;;;24.30;71.00;;;;;;4994747;28;20034;-86
2021/09/17 11:43:26;;;;;;;20.52;16.38;;;24.80;69.40;;;;;;4976852;28;20475;-85
2021/09/17 11:45:54;;;;;;;20.85;18.08;;;25.20;67.70;;;;;;4992967;28;20446;-84
2021/09/17 11:48:26;;;;;;;23.27;17.20;;;25.80;66.90;;;;;;4994332;28;20105;-84
2021/09/17 11:50:54;;;;;;;21.38;17.08;;;26.50;65.00;;;;;;4994018;28;20499;-84
2021/09/17 11:53:20;;;;;;;18.33;16.27;;;26.90;63.20;;;;;;4976749;28;20026;-83
2021/09/17 11:55:46;;;;;;;18.80;14.68;;;27.30;61.30;;;;;;4993478;28;20035;-83
2021/09/17 11:58:13;;;;;;;18.40;15.40;;;27.50;60.00;;;;;;4976795;28;20031;-84
2021/09/17 12:00:39;;;;;;;21.48;17.58;;;27.70;59.40;;;;;;4992178;28;20038;-85
2021/09/17 12:03:08;;;;;;;17.98;15.98;;;27.80;57.90;;;;;;4992772;28;20391;-85
2021/09/17 12:05:38;;;;;;;20.75;18.17;;;27.60;57.10;;;;;;4992684;28;20463;-82
2021/09/17 12:08:04;;;;;;;18.88;15.27;;;27.60;57.00;;;;;;4993486;28;20030;-84
2021/09/17 12:10:33;;;;;;;16.83;13.80;;;27.70;56.90;;;;;;4993718;28;20324;-85
2021/09/17 12:13:03;;;;;;;16.20;13.48;;;28.10;57.00;;;;;;4993699;28;20064;-85
2021/09/17 12:15:31;;;;;;;17.75;15.20;;;28.60;56.40;;;;;;4993749;28;20031;-84
2021/09/17 12:18:17;;;;;;;18.02;14.90;;;29.10;56.00;;;;;;4993168;28;20065;-86
2021/09/17 12:20:47;;;;;;;19.45;15.18;;;29.50;55.10;;;;;;4994318;28;20045;-84
2021/09/17 12:23:37;;;;;;;17.08;15.20;;;29.70;54.30;;;;;;4994569;28;20048;-84
2021/09/17 12:26:11;;;;;;;17.48;14.73;;;29.70;52.80;;;;;;5020841;28;20073;-85
2021/09/17 12:28:40;;;;;;;17.88;15.07;;;29.60;52.90;;;;;;4992813;28;20043;-84
2021/09/17 12:31:08;;;;;;;18.25;13.23;;;29.70;53.10;;;;;;4992818;28;20026;-85
2021/09/17 12:33:35;;;;;;;18.75;14.65;;;30.10;53.00;;;;;;4994347;28;20094;-84